createdAt,value
2023-05-16T00:01:26.542Z,16.74
2023-05-16T00:06:24.069Z,16.60
2023-05-16T00:11:21.203Z,16.77
2023-05-16T00:16:18.199Z,16.79
2023-05-16T00:21:15.132Z,16.50
2023-05-16T00:26:12.471Z,16.35
2023-05-16T00:31:11.047Z,16.40
2023-05-16T00:36:08.244Z,16.19
2023-05-16T00:41:04.992Z,16.14
2023-05-16T00:46:02.929Z,15.74
2023-05-16T00:51:00.892Z,16.02
2023-05-16T00:55:58.422Z,16.04
2023-05-16T01:00:55.628Z,15.91
2023-05-16T01:05:53.859Z,16.03
2023-05-16T01:11:02.685Z,15.88
2023-05-16T01:16:09.180Z,15.84
2023-05-16T01:21:12.912Z,16.01
2023-05-16T01:26:21.056Z,15.78
2023-05-16T01:31:18.206Z,15.78
2023-05-16T01:36:24.157Z,15.74
2023-05-16T01:41:27.724Z,15.76
2023-05-16T01:46:29.354Z,15.62
2023-05-16T01:51:30.468Z,15.61
2023-05-16T01:56:30.497Z,15.45
2023-05-16T02:01:27.308Z,15.27
2023-05-16T02:06:25.264Z,15.26
2023-05-16T02:11:22.709Z,15.23
2023-05-16T02:16:20.232Z,15.22
2023-05-16T02:21:17.122Z,15.09
2023-05-16T02:26:14.163Z,15.27
2023-05-16T02:31:11.042Z,15.30
2023-05-16T02:36:09.377Z,15.31
2023-05-16T02:41:06.083Z,15.28
2023-05-16T02:46:04.580Z,15.57
2023-05-16T02:51:01.417Z,15.45
2023-05-16T02:55:59.001Z,15.64
2023-05-16T03:00:55.916Z,15.65
2023-05-16T03:05:52.792Z,15.56
2023-05-16T03:10:49.814Z,15.51
2023-05-16T03:15:47.388Z,15.46
2023-05-16T03:20:44.322Z,15.27
2023-05-16T03:25:42.604Z,15.43
2023-05-16T03:30:39.502Z,15.45
2023-05-16T03:35:37.435Z,15.43
2023-05-16T03:40:35.616Z,15.45
2023-05-16T03:45:32.750Z,15.52
2023-05-16T03:50:29.689Z,15.39
2023-05-16T03:55:27.503Z,15.28
2023-05-16T04:00:25.028Z,15.09
2023-05-16T04:05:21.876Z,15.11
2023-05-16T04:10:18.742Z,15.53
2023-05-16T04:15:16.178Z,15.84
2023-05-16T04:20:13.096Z,16.03
2023-05-16T04:25:10.678Z,16.15
2023-05-16T04:30:09.153Z,16.49
2023-05-16T04:35:08.581Z,15.98
2023-05-16T04:40:07.166Z,16.54
2023-05-16T04:45:06.153Z,16.61
2023-05-16T04:50:03.174Z,16.66
2023-05-16T04:55:01.352Z,16.71
2023-05-16T04:59:58.311Z,16.87
2023-05-16T05:04:56.893Z,16.91
2023-05-16T05:09:55.396Z,17.39
2023-05-16T05:14:52.972Z,17.16
2023-05-16T05:19:49.961Z,17.54
2023-05-16T05:24:47.023Z,17.56
2023-05-16T05:29:46.408Z,18.59
2023-05-16T05:34:44.051Z,19.67
2023-05-16T05:39:42.483Z,20.88
2023-05-16T05:44:39.594Z,21.33
2023-05-16T05:49:39.208Z,22.72
2023-05-16T05:54:37.236Z,23.05
2023-05-16T05:59:36.274Z,22.35
2023-05-16T06:04:32.946Z,22.41
2023-05-16T06:09:29.723Z,21.79
2023-05-16T06:14:27.192Z,22.21
2023-05-16T06:24:48.171Z,23.05
2023-05-16T06:29:45.680Z,22.85
2023-05-16T06:34:51.845Z,22.68
2023-05-16T06:39:50.390Z,22.49
2023-05-16T06:44:48.054Z,22.54
2023-05-16T06:49:45.026Z,22.65
2023-05-16T06:54:42.341Z,22.35
2023-05-16T06:59:39.258Z,22.61
2023-05-16T07:04:37.424Z,22.77
2023-05-16T07:09:37.035Z,22.80
2023-05-16T07:14:43.221Z,23.00
2023-05-16T07:19:41.207Z,22.65
2023-05-16T07:24:38.173Z,23.60
2023-05-16T07:29:36.698Z,24.22
2023-05-16T07:34:33.811Z,24.76
2023-05-16T07:39:31.808Z,24.48
2023-05-16T07:44:28.821Z,25.10
2023-05-16T07:49:26.071Z,25.86
2023-05-16T07:54:22.872Z,25.94
2023-05-16T07:59:20.565Z,25.89
2023-05-16T08:04:17.431Z,25.57
2023-05-16T08:09:17.331Z,26.13
2023-05-16T08:14:14.141Z,27.46
2023-05-16T08:19:15.425Z,28.43
2023-05-16T08:24:12.255Z,28.82
2023-05-16T08:29:09.182Z,29.65
2023-05-16T08:34:08.653Z,30.84
2023-05-16T08:39:08.702Z,31.93
2023-05-16T08:44:10.387Z,32.43
2023-05-16T08:49:14.209Z,32.87
2023-05-16T08:54:13.682Z,33.04
2023-05-16T08:59:11.547Z,32.34
2023-05-16T09:04:09.869Z,31.13
2023-05-16T09:09:10.027Z,30.32
2023-05-16T09:14:07.571Z,29.74
2023-05-16T09:19:05.746Z,30.20
2023-05-16T09:24:07.060Z,31.05
2023-05-16T09:29:11.810Z,31.09
2023-05-16T09:34:12.405Z,30.75
2023-05-16T09:39:09.215Z,30.44
2023-05-16T09:44:07.226Z,30.65
2023-05-16T09:49:05.014Z,32.42
2023-05-16T09:54:01.959Z,34.57
2023-05-16T09:58:58.978Z,35.94
2023-05-16T10:03:56.019Z,36.77
2023-05-16T10:08:54.611Z,37.54
2023-05-16T10:13:52.810Z,37.66
2023-05-16T10:18:50.556Z,37.64
2023-05-16T10:23:50.094Z,36.95
2023-05-16T10:28:48.659Z,36.48
2023-05-16T10:33:46.829Z,36.10
2023-05-16T10:38:45.089Z,36.33
2023-05-16T10:43:44.952Z,35.99
2023-05-16T10:48:42.490Z,35.65
2023-05-16T10:53:39.365Z,35.21
2023-05-16T10:58:43.747Z,34.20
2023-05-16T11:04:02.154Z,33.81
2023-05-16T11:09:05.683Z,33.53
2023-05-16T11:14:05.989Z,33.20
2023-05-16T11:19:07.722Z,33.28
2023-05-16T11:24:28.676Z,33.00
2023-05-16T11:29:26.838Z,32.95
2023-05-16T11:34:25.387Z,32.85
2023-05-16T11:39:24.079Z,32.72
2023-05-16T11:44:21.457Z,32.82
2023-05-16T11:49:18.409Z,32.24
2023-05-16T11:54:18.918Z,31.63
2023-05-16T11:59:15.816Z,31.56
2023-05-16T12:04:15.170Z,31.68
2023-05-16T12:09:13.220Z,31.52
2023-05-16T12:14:12.753Z,31.57
2023-05-16T12:19:10.234Z,31.69
2023-05-16T12:24:11.489Z,31.73
2023-05-16T12:29:10.796Z,32.29
2023-05-16T12:34:19.961Z,32.38
2023-05-16T12:39:17.331Z,32.32
2023-05-16T12:44:16.700Z,31.85
2023-05-16T12:49:13.664Z,31.06
2023-05-16T12:54:15.170Z,31.40
2023-05-16T12:59:12.193Z,31.23
2023-05-16T13:04:18.353Z,31.47
2023-05-16T13:09:17.603Z,31.59
2023-05-16T13:14:16.059Z,31.63
2023-05-16T13:19:13.086Z,31.95
2023-05-16T13:24:10.860Z,31.96
2023-05-16T13:29:10.805Z,31.99
2023-05-16T13:34:22.812Z,31.93
2023-05-16T13:39:20.255Z,31.71
2023-05-16T13:44:17.984Z,31.34
2023-05-16T13:49:14.872Z,30.82
2023-05-16T13:54:14.286Z,30.63
2023-05-16T13:59:20.576Z,30.51
2023-05-16T14:04:34.480Z,30.39
2023-05-16T14:09:34.568Z,29.70
2023-05-16T14:14:31.735Z,29.95
2023-05-16T14:19:29.480Z,29.90
2023-05-16T14:24:26.558Z,29.69
2023-05-16T14:29:23.802Z,29.73
2023-05-16T14:34:21.731Z,29.37
2023-05-16T14:39:21.970Z,29.62
2023-05-16T14:44:24.394Z,29.35
2023-05-16T14:49:24.282Z,29.38
2023-05-16T14:54:22.072Z,28.86
2023-05-16T14:59:18.989Z,28.49
2023-05-16T15:04:16.070Z,28.43
2023-05-16T15:09:13.338Z,28.30
2023-05-16T15:14:10.914Z,27.93
2023-05-16T15:19:13.138Z,27.79
2023-05-16T15:24:29.577Z,27.60
2023-05-16T15:29:33.658Z,27.17
2023-05-16T15:34:39.031Z,27.37
2023-05-16T15:39:36.301Z,27.09
2023-05-16T15:44:34.506Z,27.19
2023-05-16T15:49:31.523Z,27.53
2023-05-16T15:54:28.815Z,27.55
2023-05-16T15:59:26.096Z,27.41
2023-05-16T16:04:26.082Z,27.27
2023-05-16T16:09:23.073Z,27.71
2023-05-16T16:14:20.236Z,27.60
2023-05-16T16:19:17.803Z,27.48
2023-05-16T16:24:15.447Z,27.34
2023-05-16T16:29:12.260Z,27.12
2023-05-16T16:34:09.265Z,27.01
2023-05-16T16:39:06.457Z,26.87
2023-05-16T16:44:05.231Z,26.66
2023-05-16T16:49:02.304Z,26.50
2023-05-16T16:54:01.676Z,26.50
2023-05-16T16:58:58.538Z,26.53
2023-05-16T17:04:01.582Z,26.32
2023-05-16T17:09:33.934Z,26.34
2023-05-16T17:14:31.064Z,25.66
2023-05-16T17:19:29.020Z,25.85
2023-05-16T17:24:30.914Z,25.44
2023-05-16T17:29:27.931Z,25.23
2023-05-16T17:34:26.307Z,24.87
2023-05-16T17:39:26.899Z,24.90
2023-05-16T17:44:24.046Z,24.63
2023-05-16T17:49:22.389Z,24.67
2023-05-16T17:54:20.563Z,24.46
2023-05-16T17:59:20.994Z,24.23
2023-05-16T18:04:21.973Z,24.17
2023-05-16T18:09:20.048Z,24.19
2023-05-16T18:14:17.641Z,24.02
2023-05-16T18:19:14.559Z,23.77
2023-05-16T18:24:18.139Z,23.92
2023-05-16T18:29:15.202Z,23.75
2023-05-16T18:34:13.276Z,23.66
2023-05-16T18:39:12.458Z,23.44
2023-05-16T18:44:09.638Z,23.33
2023-05-16T18:49:06.563Z,23.60
2023-05-16T18:54:04.254Z,23.77
2023-05-16T18:59:01.269Z,23.55
2023-05-16T19:03:58.331Z,23.70
2023-05-16T19:08:57.193Z,23.63
2023-05-16T19:13:55.252Z,23.53
2023-05-16T19:18:52.236Z,23.20
2023-05-16T19:23:49.214Z,23.15
2023-05-16T19:28:47.603Z,22.97
2023-05-16T19:33:47.586Z,22.77
2023-05-16T19:38:44.592Z,22.62
2023-05-16T19:43:41.356Z,22.19
2023-05-16T19:48:38.314Z,22.23
2023-05-16T19:53:36.047Z,21.91
2023-05-16T19:58:32.916Z,22.04
2023-05-16T20:03:30.190Z,21.92
2023-05-16T20:08:27.290Z,21.82
2023-05-16T20:13:25.815Z,21.67
2023-05-16T20:18:22.661Z,21.52
2023-05-16T20:23:19.498Z,21.38
2023-05-16T20:28:16.428Z,21.13
2023-05-16T20:33:13.984Z,21.12
2023-05-16T20:38:10.813Z,20.75
2023-05-16T20:43:07.666Z,20.79
2023-05-16T20:48:04.987Z,20.71
2023-05-16T20:53:03.138Z,20.59
2023-05-16T20:58:00.480Z,20.51
2023-05-16T21:02:57.360Z,20.42
2023-05-16T21:07:54.317Z,20.40
2023-05-16T21:12:51.913Z,20.30
2023-05-16T21:17:48.819Z,20.25
2023-05-16T21:22:45.800Z,19.89
2023-05-16T21:27:42.557Z,20.04
2023-05-16T21:32:40.144Z,19.85
2023-05-16T21:37:36.901Z,19.78
2023-05-16T21:42:33.773Z,19.75
2023-05-16T21:47:30.595Z,19.59
2023-05-16T21:52:28.095Z,19.45
2023-05-16T21:57:24.881Z,19.33
2023-05-16T22:02:22.686Z,19.11
2023-05-16T22:07:19.765Z,18.97
2023-05-16T22:12:17.294Z,18.82
2023-05-16T22:17:14.111Z,19.00
2023-05-16T22:22:11.591Z,19.00
2023-05-16T22:27:08.594Z,19.00
2023-05-16T22:32:07.812Z,18.85
2023-05-16T22:37:05.149Z,19.03
2023-05-16T22:42:02.210Z,18.84
2023-05-16T22:46:59.040Z,18.84
2023-05-16T22:51:56.573Z,18.90
2023-05-16T22:56:53.362Z,18.71
2023-05-16T23:01:50.185Z,18.70
2023-05-16T23:06:47.095Z,18.89
2023-05-16T23:11:44.505Z,19.08
2023-05-16T23:16:41.345Z,19.03
2023-05-16T23:21:39.340Z,18.77
2023-05-16T23:26:36.245Z,18.78
2023-05-16T23:31:34.799Z,18.78
2023-05-16T23:36:31.640Z,18.79
2023-05-16T23:41:28.413Z,18.74
2023-05-16T23:46:25.232Z,18.50
2023-05-16T23:51:22.790Z,18.23
2023-05-16T23:56:19.702Z,18.22
